sensor_id;sensor_type;location;lat;lon;timestamp;pressure;altitude;pressure_sealevel;temperature;humidity
71917;BME280;59793;46.506;6.674;2023-02-16T00:00:04;98322.06;;;6.97;62.53
71917;BME280;59793;46.506;6.674;2023-02-16T00:02:30;98332.75;;;7.01;63.06
71917;BME280;59793;46.506;6.674;2023-02-16T00:04:56;98309.97;;;6.82;63.22
71917;BME280;59793;46.506;6.674;2023-02-16T00:07:21;98335.63;;;6.99;63.48
71917;BME280;59793;46.506;6.674;2023-02-16T00:09:46;98315.88;;;6.88;63.69
71917;BME280;59793;46.506;6.674;2023-02-16T00:12:18;98336.56;;;7.08;63.24
71917;BME280;59793;46.506;6.674;2023-02-16T00:15:19;98342.44;;;7.00;62.84
71917;BME280;59793;46.506;6.674;2023-02-16T00:17:45;98331.84;;;6.73;63.68
71917;BME280;59793;46.506;6.674;2023-02-16T00:20:15;98344.06;;;6.77;63.63
71917;BME280;59793;46.506;6.674;2023-02-16T00:22:41;98338.28;;;6.61;62.83
71917;BME280;59793;46.506;6.674;2023-02-16T00:25:07;98346.69;;;6.58;62.98
71917;BME280;59793;46.506;6.674;2023-02-16T00:27:33;98340.22;;;6.32;63.73
71917;BME280;59793;46.506;6.674;2023-02-16T00:29:59;98327.41;;;6.30;64.12
71917;BME280;59793;46.506;6.674;2023-02-16T00:32:25;98318.22;;;6.33;64.08
71917;BME280;59793;46.506;6.674;2023-02-16T00:34:51;98330.81;;;6.50;63.54
71917;BME280;59793;46.506;6.674;2023-02-16T00:37:16;98338.75;;;6.63;63.31
71917;BME280;59793;46.506;6.674;2023-02-16T00:39:42;98348.44;;;6.82;63.69
71917;BME280;59793;46.506;6.674;2023-02-16T00:44:44;98332.75;;;6.44;63.86
71917;BME280;59793;46.506;6.674;2023-02-16T00:49:54;98320.84;;;6.33;64.21
71917;BME280;59793;46.506;6.674;2023-02-16T00:52:30;98333.22;;;6.46;64.59
71917;BME280;59793;46.506;6.674;2023-02-16T00:54:57;98334.16;;;6.55;63.90
71917;BME280;59793;46.506;6.674;2023-02-16T00:57:23;98320.13;;;6.46;62.33
71917;BME280;59793;46.506;6.674;2023-02-16T01:02:39;98337.53;;;6.37;61.81
71917;BME280;59793;46.506;6.674;2023-02-16T01:05:05;98314.59;;;6.29;62.15
71917;BME280;59793;46.506;6.674;2023-02-16T01:07:30;98330.03;;;6.49;62.01
71917;BME280;59793;46.506;6.674;2023-02-16T01:10:17;98340.94;;;6.56;62.37
71917;BME280;59793;46.506;6.674;2023-02-16T01:13:01;98332.06;;;6.57;62.15
71917;BME280;59793;46.506;6.674;2023-02-16T01:15:26;98331.78;;;6.35;62.98
71917;BME280;59793;46.506;6.674;2023-02-16T01:17:52;98335.53;;;6.29;63.27
71917;BME280;59793;46.506;6.674;2023-02-16T01:20:23;98328.88;;;6.17;63.22
71917;BME280;59793;46.506;6.674;2023-02-16T01:22:49;98316.84;;;6.16;63.22
71917;BME280;59793;46.506;6.674;2023-02-16T01:25:14;98279.56;;;6.06;62.94
71917;BME280;59793;46.506;6.674;2023-02-16T01:27:41;98343.09;;;6.54;63.15
71917;BME280;59793;46.506;6.674;2023-02-16T01:30:12;98317.38;;;6.56;62.75
71917;BME280;59793;46.506;6.674;2023-02-16T01:32:38;98289.22;;;6.29;62.39
71917;BME280;59793;46.506;6.674;2023-02-16T01:35:03;98326.94;;;6.47;62.41
71917;BME280;59793;46.506;6.674;2023-02-16T01:37:29;98317.16;;;6.34;62.14
71917;BME280;59793;46.506;6.674;2023-02-16T01:39:54;98343.13;;;6.49;62.14
71917;BME280;59793;46.506;6.674;2023-02-16T01:42:35;98332.75;;;6.20;61.82
71917;BME280;59793;46.506;6.674;2023-02-16T01:45:07;98318.31;;;5.74;62.60
71917;BME280;59793;46.506;6.674;2023-02-16T01:47:41;98327.13;;;5.55;63.99
71917;BME280;59793;46.506;6.674;2023-02-16T01:52:40;98313.69;;;5.66;64.03
71917;BME280;59793;46.506;6.674;2023-02-16T01:55:19;98329.28;;;5.77;64.24
71917;BME280;59793;46.506;6.674;2023-02-16T01:57:50;98301.13;;;5.68;64.14
71917;BME280;59793;46.506;6.674;2023-02-16T02:01:14;98333.53;;;5.96;63.15
71917;BME280;59793;46.506;6.674;2023-02-16T02:03:18;98344.59;;;5.88;63.60
71917;BME280;59793;46.506;6.674;2023-02-16T02:06:02;98307.19;;;5.88;63.87
71917;BME280;59793;46.506;6.674;2023-02-16T02:11:07;98320.41;;;6.26;64.21
71917;BME280;59793;46.506;6.674;2023-02-16T02:13:42;98317.50;;;6.27;63.99
71917;BME280;59793;46.506;6.674;2023-02-16T02:16:10;98309.84;;;6.12;64.26
71917;BME280;59793;46.506;6.674;2023-02-16T02:18:36;98318.41;;;5.93;64.84
71917;BME280;59793;46.506;6.674;2023-02-16T02:21:21;98321.34;;;6.11;64.11
71917;BME280;59793;46.506;6.674;2023-02-16T02:27:37;98313.69;;;6.19;65.62
71917;BME280;59793;46.506;6.674;2023-02-16T02:36:02;98294.53;;;6.00;65.39
71917;BME280;59793;46.506;6.674;2023-02-16T02:41:36;98316.56;;;5.65;64.17
71917;BME280;59793;46.506;6.674;2023-02-16T02:44:23;98310.75;;;5.73;63.48
71917;BME280;59793;46.506;6.674;2023-02-16T02:46:52;98303.41;;;5.75;63.80
71917;BME280;59793;46.506;6.674;2023-02-16T02:49:17;98294.56;;;5.71;63.20
71917;BME280;59793;46.506;6.674;2023-02-16T02:51:43;98292.25;;;5.69;62.94
71917;BME280;59793;46.506;6.674;2023-02-16T02:57:10;98304.69;;;5.78;62.94
71917;BME280;59793;46.506;6.674;2023-02-16T03:03:15;98305.44;;;5.54;61.45
71917;BME280;59793;46.506;6.674;2023-02-16T03:05:43;98299.75;;;5.47;61.43
71917;BME280;59793;46.506;6.674;2023-02-16T03:08:13;98297.16;;;5.47;61.75
71917;BME280;59793;46.506;6.674;2023-02-16T03:10:52;98285.78;;;5.33;62.02
71917;BME280;59793;46.506;6.674;2023-02-16T03:13:41;98293.06;;;5.36;63.39
71917;BME280;59793;46.506;6.674;2023-02-16T03:16:12;98281.31;;;5.33;63.00
71917;BME280;59793;46.506;6.674;2023-02-16T03:18:39;98260.94;;;5.35;62.61
71917;BME280;59793;46.506;6.674;2023-02-16T03:21:24;98286.50;;;5.67;62.36
71917;BME280;59793;46.506;6.674;2023-02-16T03:24:14;98282.47;;;5.75;62.34
71917;BME280;59793;46.506;6.674;2023-02-16T03:26:59;98293.28;;;5.68;63.56
71917;BME280;59793;46.506;6.674;2023-02-16T03:29:46;98285.53;;;5.58;64.55
71917;BME280;59793;46.506;6.674;2023-02-16T03:32:13;98298.91;;;5.81;64.39
71917;BME280;59793;46.506;6.674;2023-02-16T03:34:40;98285.75;;;5.62;65.22
71917;BME280;59793;46.506;6.674;2023-02-16T03:37:05;98305.13;;;5.85;65.65
71917;BME280;59793;46.506;6.674;2023-02-16T03:39:31;98257.22;;;5.65;65.37
71917;BME280;59793;46.506;6.674;2023-02-16T03:42:18;98261.84;;;5.73;66.10
71917;BME280;59793;46.506;6.674;2023-02-16T03:44:44;98290.19;;;5.90;66.00
71917;BME280;59793;46.506;6.674;2023-02-16T03:47:09;98302.00;;;5.83;65.45
71917;BME280;59793;46.506;6.674;2023-02-16T03:49:35;98300.56;;;5.71;64.03
71917;BME280;59793;46.506;6.674;2023-02-16T03:52:00;98302.19;;;5.67;64.19
71917;BME280;59793;46.506;6.674;2023-02-16T03:54:25;98279.16;;;5.40;64.80
71917;BME280;59793;46.506;6.674;2023-02-16T03:56:51;98263.00;;;5.09;65.60
71917;BME280;59793;46.506;6.674;2023-02-16T03:59:16;98262.44;;;5.12;64.68
71917;BME280;59793;46.506;6.674;2023-02-16T04:01:41;98312.28;;;5.21;65.98
71917;BME280;59793;46.506;6.674;2023-02-16T04:04:07;98317.19;;;5.27;65.54
71917;BME280;59793;46.506;6.674;2023-02-16T04:06:32;98315.06;;;5.30;63.97
71917;BME280;59793;46.506;6.674;2023-02-16T04:08:57;98287.47;;;5.18;62.79
71917;BME280;59793;46.506;6.674;2023-02-16T04:11:23;98281.69;;;5.21;62.44
71917;BME280;59793;46.506;6.674;2023-02-16T04:14:06;98317.34;;;5.41;62.20
71917;BME280;59793;46.506;6.674;2023-02-16T04:16:32;98315.72;;;5.16;62.96
71917;BME280;59793;46.506;6.674;2023-02-16T04:18:57;98290.00;;;4.99;64.71
71917;BME280;59793;46.506;6.674;2023-02-16T04:21:22;98293.59;;;5.03;64.32
71917;BME280;59793;46.506;6.674;2023-02-16T04:23:48;98310.03;;;5.09;64.78
71917;BME280;59793;46.506;6.674;2023-02-16T04:26:13;98305.84;;;5.08;65.02
71917;BME280;59793;46.506;6.674;2023-02-16T04:28:38;98310.81;;;5.04;65.56
71917;BME280;59793;46.506;6.674;2023-02-16T04:31:04;98314.38;;;5.19;64.91
71917;BME280;59793;46.506;6.674;2023-02-16T04:33:29;98308.13;;;5.15;64.70
71917;BME280;59793;46.506;6.674;2023-02-16T04:35:54;98321.44;;;5.18;64.71
71917;BME280;59793;46.506;6.674;2023-02-16T04:38:20;98320.47;;;5.09;64.40
71917;BME280;59793;46.506;6.674;2023-02-16T04:40:45;98317.69;;;4.95;63.50
71917;BME280;59793;46.506;6.674;2023-02-16T04:43:11;98309.63;;;4.92;64.21
71917;BME280;59793;46.506;6.674;2023-02-16T04:45:36;98307.09;;;4.76;63.72
71917;BME280;59793;46.506;6.674;2023-02-16T04:48:01;98300.50;;;4.89;63.64
71917;BME280;59793;46.506;6.674;2023-02-16T04:50:27;98339.47;;;5.15;63.82
71917;BME280;59793;46.506;6.674;2023-02-16T04:52:53;98305.38;;;5.01;64.57
71917;BME280;59793;46.506;6.674;2023-02-16T04:55:18;98250.78;;;4.70;63.80
71917;BME280;59793;46.506;6.674;2023-02-16T04:57:44;98351.66;;;5.30;63.71
71917;BME280;59793;46.506;6.674;2023-02-16T05:00:10;98343.31;;;5.27;63.80
71917;BME280;59793;46.506;6.674;2023-02-16T05:02:38;98310.50;;;5.16;65.10
71917;BME280;59793;46.506;6.674;2023-02-16T05:05:04;98336.19;;;5.33;64.58
71917;BME280;59793;46.506;6.674;2023-02-16T05:07:29;98338.59;;;5.30;65.74
71917;BME280;59793;46.506;6.674;2023-02-16T05:09:55;98330.13;;;5.09;66.55
71917;BME280;59793;46.506;6.674;2023-02-16T05:12:21;98329.28;;;5.18;67.26
71917;BME280;59793;46.506;6.674;2023-02-16T05:15:05;98333.94;;;5.21;66.77
71917;BME280;59793;46.506;6.674;2023-02-16T05:17:30;98329.72;;;5.31;66.74
71917;BME280;59793;46.506;6.674;2023-02-16T05:19:58;98308.59;;;5.22;66.93
71917;BME280;59793;46.506;6.674;2023-02-16T05:22:24;98330.66;;;5.40;68.37
71917;BME280;59793;46.506;6.674;2023-02-16T05:24:50;98333.50;;;5.43;67.34
71917;BME280;59793;46.506;6.674;2023-02-16T05:27:28;98291.31;;;4.97;66.72
71917;BME280;59793;46.506;6.674;2023-02-16T05:29:54;98334.72;;;5.22;65.69
71917;BME280;59793;46.506;6.674;2023-02-16T05:32:19;98322.38;;;4.98;65.05
71917;BME280;59793;46.506;6.674;2023-02-16T05:34:45;98341.94;;;5.01;65.23
71917;BME280;59793;46.506;6.674;2023-02-16T05:37:11;98288.41;;;4.64;65.76
71917;BME280;59793;46.506;6.674;2023-02-16T05:39:37;98342.53;;;4.93;65.93
71917;BME280;59793;46.506;6.674;2023-02-16T05:42:03;98321.09;;;4.91;65.35
71917;BME280;59793;46.506;6.674;2023-02-16T05:44:28;98343.94;;;5.14;65.81
71917;BME280;59793;46.506;6.674;2023-02-16T05:46:53;98342.56;;;5.22;66.52
71917;BME280;59793;46.506;6.674;2023-02-16T05:49:19;98316.34;;;4.98;66.81
71917;BME280;59793;46.506;6.674;2023-02-16T05:51:44;98357.97;;;5.23;67.60
71917;BME280;59793;46.506;6.674;2023-02-16T05:54:10;98359.25;;;5.26;68.31
71917;BME280;59793;46.506;6.674;2023-02-16T05:56:44;98354.84;;;5.21;67.52
71917;BME280;59793;46.506;6.674;2023-02-16T05:59:11;98366.16;;;5.12;67.46
71917;BME280;59793;46.506;6.674;2023-02-16T06:01:37;98340.00;;;4.77;67.34
71917;BME280;59793;46.506;6.674;2023-02-16T06:04:08;98333.25;;;4.71;66.99
71917;BME280;59793;46.506;6.674;2023-02-16T06:06:36;98344.31;;;4.48;67.99
71917;BME280;59793;46.506;6.674;2023-02-16T06:09:05;98372.41;;;4.71;67.64
71917;BME280;59793;46.506;6.674;2023-02-16T06:11:31;98358.88;;;4.59;67.83
71917;BME280;59793;46.506;6.674;2023-02-16T06:14:00;98362.44;;;4.78;67.37
71917;BME280;59793;46.506;6.674;2023-02-16T06:16:30;98373.13;;;4.82;67.05
71917;BME280;59793;46.506;6.674;2023-02-16T06:18:57;98330.19;;;4.59;67.52
71917;BME280;59793;46.506;6.674;2023-02-16T06:21:23;98365.88;;;4.74;67.51
71917;BME280;59793;46.506;6.674;2023-02-16T06:23:48;98314.41;;;4.30;66.99
71917;BME280;59793;46.506;6.674;2023-02-16T06:26:15;98374.53;;;4.59;68.14
71917;BME280;59793;46.506;6.674;2023-02-16T06:28:40;98327.72;;;4.28;68.09
71917;BME280;59793;46.506;6.674;2023-02-16T06:31:06;98369.06;;;4.55;68.65
71917;BME280;59793;46.506;6.674;2023-02-16T06:33:31;98346.97;;;4.43;69.08
71917;BME280;59793;46.506;6.674;2023-02-16T06:35:58;98354.19;;;4.61;69.70
71917;BME280;59793;46.506;6.674;2023-02-16T06:38:25;98392.41;;;4.91;70.50
71917;BME280;59793;46.506;6.674;2023-02-16T06:40:52;98386.94;;;4.88;70.83
71917;BME280;59793;46.506;6.674;2023-02-16T06:43:17;98385.38;;;4.87;70.54
71917;BME280;59793;46.506;6.674;2023-02-16T06:45:42;98343.50;;;4.58;70.46
71917;BME280;59793;46.506;6.674;2023-02-16T06:48:08;98373.66;;;4.79;69.53
71917;BME280;59793;46.506;6.674;2023-02-16T06:50:33;98342.69;;;4.62;69.30
71917;BME280;59793;46.506;6.674;2023-02-16T06:52:59;98383.28;;;4.89;69.87
71917;BME280;59793;46.506;6.674;2023-02-16T06:55:24;98395.81;;;4.92;69.92
71917;BME280;59793;46.506;6.674;2023-02-16T06:57:50;98352.63;;;4.60;68.21
71917;BME280;59793;46.506;6.674;2023-02-16T07:00:15;98364.91;;;4.60;68.35
71917;BME280;59793;46.506;6.674;2023-02-16T07:02:41;98382.56;;;4.73;69.13
71917;BME280;59793;46.506;6.674;2023-02-16T07:05:08;98387.25;;;4.76;70.07
71917;BME280;59793;46.506;6.674;2023-02-16T07:07:34;98321.19;;;4.31;69.42
71917;BME280;59793;46.506;6.674;2023-02-16T07:09:59;98378.97;;;4.59;68.08
71917;BME280;59793;46.506;6.674;2023-02-16T07:12:27;98399.13;;;4.53;67.95
71917;BME280;59793;46.506;6.674;2023-02-16T07:14:52;98351.78;;;4.15;68.52
71917;BME280;59793;46.506;6.674;2023-02-16T07:17:17;98407.16;;;4.67;68.21
71917;BME280;59793;46.506;6.674;2023-02-16T07:19:43;98411.47;;;4.87;67.18
71917;BME280;59793;46.506;6.674;2023-02-16T07:22:08;98407.69;;;5.08;66.45
71917;BME280;59793;46.506;6.674;2023-02-16T07:24:33;98373.75;;;5.08;65.46
71917;BME280;59793;46.506;6.674;2023-02-16T07:26:59;98388.28;;;5.24;65.85
71917;BME280;59793;46.506;6.674;2023-02-16T07:29:24;98412.69;;;5.44;66.00
71917;BME280;59793;46.506;6.674;2023-02-16T07:31:49;98414.44;;;5.54;65.91
71917;BME280;59793;46.506;6.674;2023-02-16T07:34:15;98396.34;;;5.62;65.29
71917;BME280;59793;46.506;6.674;2023-02-16T07:36:41;98403.91;;;5.98;64.55
71917;BME280;59793;46.506;6.674;2023-02-16T07:39:06;98409.31;;;6.31;64.34
71917;BME280;59793;46.506;6.674;2023-02-16T07:41:32;98392.31;;;6.52;63.98
71917;BME280;59793;46.506;6.674;2023-02-16T07:43:57;98419.13;;;6.87;63.93
71917;BME280;59793;46.506;6.674;2023-02-16T07:46:23;98415.09;;;7.13;63.46
71917;BME280;59793;46.506;6.674;2023-02-16T07:48:49;98418.19;;;7.34;63.15
71917;BME280;59793;46.506;6.674;2023-02-16T07:51:26;98424.88;;;7.59;62.47
71917;BME280;59793;46.506;6.674;2023-02-16T07:53:52;98401.75;;;7.48;61.96
71917;BME280;59793;46.506;6.674;2023-02-16T07:56:26;98420.97;;;7.76;61.25
71917;BME280;59793;46.506;6.674;2023-02-16T07:58:53;98419.66;;;7.92;60.77
71917;BME280;59793;46.506;6.674;2023-02-16T08:01:19;98423.53;;;8.08;61.00
71917;BME280;59793;46.506;6.674;2023-02-16T08:03:44;98391.38;;;8.17;60.43
71917;BME280;59793;46.506;6.674;2023-02-16T08:06:11;98422.91;;;8.44;59.43
71917;BME280;59793;46.506;6.674;2023-02-16T08:08:37;98420.19;;;8.49;59.10
71917;BME280;59793;46.506;6.674;2023-02-16T08:11:16;98424.69;;;8.63;59.24
71917;BME280;59793;46.506;6.674;2023-02-16T08:13:42;98428.16;;;8.72;58.96
71917;BME280;59793;46.506;6.674;2023-02-16T08:16:14;98423.00;;;8.67;57.25
71917;BME280;59793;46.506;6.674;2023-02-16T08:18:40;98426.59;;;8.84;57.55
71917;BME280;59793;46.506;6.674;2023-02-16T08:21:10;98421.78;;;8.86;57.65
71917;BME280;59793;46.506;6.674;2023-02-16T08:23:39;98406.16;;;8.81;57.67
71917;BME280;59793;46.506;6.674;2023-02-16T08:26:09;98407.41;;;9.20;57.58
71917;BME280;59793;46.506;6.674;2023-02-16T08:28:35;98401.31;;;8.97;57.48
71917;BME280;59793;46.506;6.674;2023-02-16T08:31:04;98381.97;;;8.93;57.03
71917;BME280;59793;46.506;6.674;2023-02-16T08:33:34;98429.94;;;9.35;57.35
71917;BME280;59793;46.506;6.674;2023-02-16T08:35:59;98423.38;;;9.24;57.37
71917;BME280;59793;46.506;6.674;2023-02-16T08:38:24;98429.88;;;9.71;57.15
71917;BME280;59793;46.506;6.674;2023-02-16T08:40:50;98422.06;;;9.80;56.98
71917;BME280;59793;46.506;6.674;2023-02-16T08:43:16;98425.28;;;9.77;56.88
71917;BME280;59793;46.506;6.674;2023-02-16T08:45:45;98425.59;;;9.75;57.17
71917;BME280;59793;46.506;6.674;2023-02-16T08:48:12;98433.66;;;9.56;57.99
71917;BME280;59793;46.506;6.674;2023-02-16T08:50:42;98408.78;;;8.68;60.15
71917;BME280;59793;46.506;6.674;2023-02-16T08:53:11;98418.22;;;8.27;62.56
71917;BME280;59793;46.506;6.674;2023-02-16T08:55:37;98380.31;;;8.47;62.00
71917;BME280;59793;46.506;6.674;2023-02-16T08:58:03;98366.91;;;8.49;61.37
71917;BME280;59793;46.506;6.674;2023-02-16T09:00:28;98451.03;;;8.71;64.10
71917;BME280;59793;46.506;6.674;2023-02-16T09:03:01;98457.81;;;8.72;64.09
71917;BME280;59793;46.506;6.674;2023-02-16T09:05:28;98454.16;;;8.73;63.68
71917;BME280;59793;46.506;6.674;2023-02-16T09:07:55;98460.56;;;9.31;61.33
71917;BME280;59793;46.506;6.674;2023-02-16T09:10:21;98435.31;;;9.75;60.38
71917;BME280;59793;46.506;6.674;2023-02-16T09:12:48;98439.44;;;10.21;57.45
71917;BME280;59793;46.506;6.674;2023-02-16T09:15:15;98435.50;;;9.78;59.68
71917;BME280;59793;46.506;6.674;2023-02-16T09:17:41;98429.59;;;9.50;60.34
71917;BME280;59793;46.506;6.674;2023-02-16T09:20:08;98428.34;;;9.48;59.91
71917;BME280;59793;46.506;6.674;2023-02-16T09:22:34;98419.13;;;9.59;60.54
71917;BME280;59793;46.506;6.674;2023-02-16T09:24:59;98424.22;;;9.55;60.44
71917;BME280;59793;46.506;6.674;2023-02-16T09:27:24;98454.22;;;9.77;61.83
71917;BME280;59793;46.506;6.674;2023-02-16T09:29:50;98450.50;;;10.00;59.55
71917;BME280;59793;46.506;6.674;2023-02-16T09:32:15;98435.50;;;9.78;60.04
71917;BME280;59793;46.506;6.674;2023-02-16T09:34:41;98436.00;;;10.12;59.50
71917;BME280;59793;46.506;6.674;2023-02-16T09:37:09;98448.03;;;10.26;58.74
71917;BME280;59793;46.506;6.674;2023-02-16T09:39:34;98434.38;;;9.93;59.88
71917;BME280;59793;46.506;6.674;2023-02-16T09:42:14;98454.53;;;10.06;59.05
71917;BME280;59793;46.506;6.674;2023-02-16T09:47:23;98470.09;;;10.17;59.19
71917;BME280;59793;46.506;6.674;2023-02-16T09:49:50;98466.00;;;9.34;61.79
71917;BME280;59793;46.506;6.674;2023-02-16T09:52:39;98461.91;;;9.65;61.56
71917;BME280;59793;46.506;6.674;2023-02-16T09:55:12;98455.31;;;9.76;60.19
71917;BME280;59793;46.506;6.674;2023-02-16T09:58:13;98467.13;;;10.10;60.62
71917;BME280;59793;46.506;6.674;2023-02-16T10:00:51;98457.41;;;10.50;58.75
71917;BME280;59793;46.506;6.674;2023-02-16T10:08:40;98418.69;;;10.59;57.32
71917;BME280;59793;46.506;6.674;2023-02-16T10:11:31;98461.44;;;11.39;55.68
71917;BME280;59793;46.506;6.674;2023-02-16T10:14:15;98458.69;;;10.61;58.13
71917;BME280;59793;46.506;6.674;2023-02-16T10:16:51;98466.53;;;10.44;58.98
71917;BME280;59793;46.506;6.674;2023-02-16T10:19:34;98452.59;;;11.27;56.21
71917;BME280;59793;46.506;6.674;2023-02-16T10:22:05;98435.34;;;11.12;56.16
71917;BME280;59793;46.506;6.674;2023-02-16T10:24:41;98469.66;;;11.20;56.72
71917;BME280;59793;46.506;6.674;2023-02-16T10:27:12;98462.75;;;10.76;58.42
71917;BME280;59793;46.506;6.674;2023-02-16T10:29:39;98459.78;;;10.69;57.25
71917;BME280;59793;46.506;6.674;2023-02-16T10:32:20;98473.19;;;10.90;57.03
71917;BME280;59793;46.506;6.674;2023-02-16T10:34:49;98473.38;;;11.19;56.49
71917;BME280;59793;46.506;6.674;2023-02-16T10:37:36;98476.66;;;11.77;54.40
71917;BME280;59793;46.506;6.674;2023-02-16T10:40:21;98477.09;;;12.05;53.19
71917;BME280;59793;46.506;6.674;2023-02-16T10:42:53;98463.66;;;12.19;51.98
71917;BME280;59793;46.506;6.674;2023-02-16T10:45:45;98475.13;;;12.40;51.99
71917;BME280;59793;46.506;6.674;2023-02-16T10:48:12;98431.09;;;12.06;52.61
71917;BME280;59793;46.506;6.674;2023-02-16T10:50:45;98470.22;;;12.60;52.62
71917;BME280;59793;46.506;6.674;2023-02-16T10:53:16;98423.53;;;12.26;51.72
71917;BME280;59793;46.506;6.674;2023-02-16T10:55:44;98450.22;;;12.71;50.90
71917;BME280;59793;46.506;6.674;2023-02-16T10:58:18;98404.63;;;12.15;50.95
71917;BME280;59793;46.506;6.674;2023-02-16T11:00:52;98449.47;;;12.41;51.31
71917;BME280;59793;46.506;6.674;2023-02-16T11:03:24;98449.72;;;12.01;52.09
71917;BME280;59793;46.506;6.674;2023-02-16T11:05:52;98426.31;;;12.38;51.46
71917;BME280;59793;46.506;6.674;2023-02-16T11:08:18;98453.66;;;12.72;51.80
71917;BME280;59793;46.506;6.674;2023-02-16T11:10:46;98432.81;;;12.70;50.99
71917;BME280;59793;46.506;6.674;2023-02-16T11:15:51;98438.47;;;11.48;54.33
71917;BME280;59793;46.506;6.674;2023-02-16T11:18:32;98422.97;;;11.21;55.79
71917;BME280;59793;46.506;6.674;2023-02-16T11:20:59;98417.63;;;11.73;53.58
71917;BME280;59793;46.506;6.674;2023-02-16T11:23:39;98438.97;;;12.15;53.53
71917;BME280;59793;46.506;6.674;2023-02-16T11:26:21;98410.38;;;12.17;52.65
71917;BME280;59793;46.506;6.674;2023-02-16T11:28:48;98435.00;;;12.68;51.62
71917;BME280;59793;46.506;6.674;2023-02-16T11:31:22;98393.09;;;13.21;50.10
71917;BME280;59793;46.506;6.674;2023-02-16T11:33:57;98433.63;;;13.12;51.03
71917;BME280;59793;46.506;6.674;2023-02-16T11:36:37;98434.16;;;13.06;50.22
71917;BME280;59793;46.506;6.674;2023-02-16T11:41:53;98404.56;;;13.33;49.75
71917;BME280;59793;46.506;6.674;2023-02-16T11:46:57;98413.50;;;13.74;48.37
71917;BME280;59793;46.506;6.674;2023-02-16T11:49:39;98407.31;;;13.16;49.41
71917;BME280;59793;46.506;6.674;2023-02-16T11:52:28;98412.59;;;13.16;49.87
71917;BME280;59793;46.506;6.674;2023-02-16T11:54:56;98406.78;;;13.44;49.05
71917;BME280;59793;46.506;6.674;2023-02-16T11:57:33;98396.63;;;13.46;48.74
71917;BME280;59793;46.506;6.674;2023-02-16T12:00:03;98391.25;;;14.00;47.57
71917;BME280;59793;46.506;6.674;2023-02-16T12:02:35;98400.28;;;13.86;46.67
71917;BME280;59793;46.506;6.674;2023-02-16T12:05:26;98396.75;;;13.95;45.23
71917;BME280;59793;46.506;6.674;2023-02-16T12:11:15;98389.03;;;13.90;44.96
71917;BME280;59793;46.506;6.674;2023-02-16T12:13:56;98396.25;;;14.38;43.39
71917;BME280;59793;46.506;6.674;2023-02-16T12:16:38;98386.41;;;14.26;44.10
71917;BME280;59793;46.506;6.674;2023-02-16T12:22:14;98386.94;;;14.44;43.51
71917;BME280;59793;46.506;6.674;2023-02-16T12:27:38;98372.72;;;14.61;44.22
71917;BME280;59793;46.506;6.674;2023-02-16T12:30:28;98369.66;;;14.87;43.17
71917;BME280;59793;46.506;6.674;2023-02-16T12:33:24;98350.41;;;14.90;42.81
71917;BME280;59793;46.506;6.674;2023-02-16T12:36:04;98363.00;;;15.05;42.62
71917;BME280;59793;46.506;6.674;2023-02-16T12:43:54;98355.53;;;14.83;43.06
71917;BME280;59793;46.506;6.674;2023-02-16T12:46:34;98346.16;;;14.73;41.36
71917;BME280;59793;46.506;6.674;2023-02-16T12:51:52;98317.22;;;14.68;39.86
71917;BME280;59793;46.506;6.674;2023-02-16T12:55:06;98353.06;;;15.02;39.68
71917;BME280;59793;46.506;6.674;2023-02-16T12:57:35;98354.50;;;15.00;40.51
71917;BME280;59793;46.506;6.674;2023-02-16T13:00:05;98347.78;;;14.90;40.33
71917;BME280;59793;46.506;6.674;2023-02-16T13:02:52;98329.06;;;15.27;38.32
71917;BME280;59793;46.506;6.674;2023-02-16T13:05:36;98340.47;;;15.43;37.46
71917;BME280;59793;46.506;6.674;2023-02-16T13:08:14;98329.03;;;15.71;37.13
71917;BME280;59793;46.506;6.674;2023-02-16T13:11:02;98321.28;;;15.50;36.60
71917;BME280;59793;46.506;6.674;2023-02-16T13:13:32;98310.38;;;15.83;36.43
71917;BME280;59793;46.506;6.674;2023-02-16T13:18:31;98307.72;;;15.83;35.62
71917;BME280;59793;46.506;6.674;2023-02-16T13:21:08;98303.16;;;15.84;35.80
71917;BME280;59793;46.506;6.674;2023-02-16T13:26:19;98297.34;;;15.94;35.19
71917;BME280;59793;46.506;6.674;2023-02-16T13:36:52;98275.44;;;16.36;36.22
71917;BME280;59793;46.506;6.674;2023-02-16T13:44:54;98263.00;;;16.98;32.37
71917;BME280;59793;46.506;6.674;2023-02-16T13:47:37;98276.63;;;16.93;35.00
71917;BME280;59793;46.506;6.674;2023-02-16T13:50:07;98278.91;;;16.20;34.99
71917;BME280;59793;46.506;6.674;2023-02-16T13:52:40;98277.19;;;16.28;35.94
71917;BME280;59793;46.506;6.674;2023-02-16T13:55:30;98267.00;;;16.88;35.13
71917;BME280;59793;46.506;6.674;2023-02-16T14:05:40;98257.28;;;17.19;34.44
71917;BME280;59793;46.506;6.674;2023-02-16T14:15:55;98249.72;;;18.50;31.63
71917;BME280;59793;46.506;6.674;2023-02-16T14:21:23;98262.75;;;18.55;30.71
71917;BME280;59793;46.506;6.674;2023-02-16T14:23:58;98255.75;;;18.74;30.74
71917;BME280;59793;46.506;6.674;2023-02-16T14:26:25;98255.44;;;18.82;31.33
71917;BME280;59793;46.506;6.674;2023-02-16T14:29:07;98258.38;;;19.07;30.70
71917;BME280;59793;46.506;6.674;2023-02-16T14:31:42;98256.69;;;18.92;28.09
71917;BME280;59793;46.506;6.674;2023-02-16T14:37:09;98256.19;;;18.19;29.92
71917;BME280;59793;46.506;6.674;2023-02-16T14:39:47;98242.59;;;18.61;29.25
71917;BME280;59793;46.506;6.674;2023-02-16T14:42:25;98247.94;;;18.95;28.33
71917;BME280;59793;46.506;6.674;2023-02-16T14:47:49;98251.56;;;20.17;28.46
71917;BME280;59793;46.506;6.674;2023-02-16T14:50:43;98249.16;;;20.74;29.47
71917;BME280;59793;46.506;6.674;2023-02-16T14:58:53;98236.22;;;20.03;32.66
71917;BME280;59793;46.506;6.674;2023-02-16T15:01:21;98238.13;;;20.06;32.71
71917;BME280;59793;46.506;6.674;2023-02-16T15:03:49;98237.91;;;20.33;32.09
71917;BME280;59793;46.506;6.674;2023-02-16T15:06:34;98236.59;;;19.50;35.20
71917;BME280;59793;46.506;6.674;2023-02-16T15:09:13;98244.78;;;18.52;36.44
71917;BME280;59793;46.506;6.674;2023-02-16T15:11:52;98222.31;;;17.20;40.15
71917;BME280;59793;46.506;6.674;2023-02-16T15:14:41;98233.19;;;15.95;43.16
71917;BME280;59793;46.506;6.674;2023-02-16T15:17:09;98235.19;;;15.35;44.42
71917;BME280;59793;46.506;6.674;2023-02-16T15:19:39;98242.03;;;14.76;45.63